Time;durP1;ratioP1;P1;durP2;ratioP2;P2;SDS_P1;SDS_P2;PMS_P1;PMS_P2;Temp;Humidity;BMP_temperature;BMP_pressure;BME280_temperature;BME280_humidity;BME280_pressure;Samples;Min_cycle;Max_cycle;Signal;HPM_P1;HPM_P2
2023/06/25 04:02:02;;;;;;;5.57;5.23;;;18.30;99.90;;;;;;5252514;23;20495;-67
2023/06/25 04:04:29;;;;;;;5.80;5.40;;;18.50;99.90;;;;;;4971667;28;20467;-68
2023/06/25 04:06:55;;;;;;;6.37;5.97;;;18.50;99.90;;;;;;4976416;28;20839;-68
2023/06/25 04:09:22;;;;;;;5.73;5.33;;;18.60;99.90;;;;;;4970349;28;20468;-67
2023/06/25 04:11:49;;;;;;;5.80;5.40;;;18.60;99.90;;;;;;4972716;28;20488;-67
2023/06/25 04:14:15;;;;;;;6.83;6.33;;;18.70;99.90;;;;;;4973772;28;20468;-67
2023/06/25 04:16:42;;;;;;;5.17;4.87;;;18.70;99.90;;;;;;4972593;28;20832;-67
2023/06/25 04:19:10;;;;;;;4.23;4.03;;;18.70;99.90;;;;;;4972453;28;20586;-67
2023/06/25 04:21:37;;;;;;;6.57;6.17;;;18.70;99.90;;;;;;4972411;28;20515;-67
2023/06/25 04:24:05;;;;;;;7.10;6.57;;;18.80;99.90;;;;;;4969570;28;20541;-67
2023/06/25 04:26:31;;;;;;;6.00;5.70;;;18.80;99.90;;;;;;4971472;28;20896;-67
2023/06/25 04:28:58;;;;;;;8.33;5.53;;;18.90;99.90;;;;;;4971011;28;20478;-67
2023/06/25 04:31:25;;;;;;;6.07;5.60;;;18.90;99.90;;;;;;4971196;28;20491;-67
2023/06/25 04:33:52;;;;;;;5.53;5.13;;;18.90;99.90;;;;;;4971117;28;20479;-67
2023/06/25 04:36:20;;;;;;;5.50;5.20;;;19.00;99.90;;;;;;4972122;28;20559;-67
2023/06/25 04:38:47;;;;;;;6.73;6.10;;;19.00;99.90;;;;;;4973661;28;20507;-68
2023/06/25 04:41:14;;;;;;;6.43;5.93;;;19.00;99.90;;;;;;4969068;28;20506;-67
2023/06/25 04:43:40;;;;;;;6.70;6.20;;;19.00;99.90;;;;;;4970390;28;20500;-68
2023/06/25 04:46:07;;;;;;;6.60;6.00;;;19.10;99.90;;;;;;4970859;28;20479;-69
2023/06/25 04:48:34;;;;;;;6.27;5.77;;;19.20;99.90;;;;;;4970374;28;20980;-66
2023/06/25 04:51:01;;;;;;;7.03;6.63;;;19.20;99.90;;;;;;4972204;28;20495;-67
2023/06/25 04:53:29;;;;;;;5.50;5.10;;;19.30;99.90;;;;;;4970454;28;20464;-68
2023/06/25 04:55:56;;;;;;;6.03;5.70;;;19.40;99.90;;;;;;4970518;28;20474;-67
2023/06/25 04:58:22;;;;;;;6.63;6.23;;;19.40;99.90;;;;;;4970390;28;20528;-67
2023/06/25 05:00:49;;;;;;;7.07;6.53;;;19.40;99.90;;;;;;4971589;28;20606;-66
2023/06/25 05:03:16;;;;;;;6.70;6.07;;;19.40;99.90;;;;;;4970236;28;20473;-67
2023/06/25 05:05:42;;;;;;;6.33;5.37;;;19.50;99.90;;;;;;4968293;28;20859;-68
2023/06/25 05:08:09;;;;;;;5.67;5.27;;;19.60;99.90;;;;;;4969822;28;20582;-67
2023/06/25 05:10:37;;;;;;;6.00;5.50;;;19.70;99.90;;;;;;4969146;28;20562;-67
2023/06/25 05:13:04;;;;;;;6.13;5.77;;;19.70;99.90;;;;;;4973726;28;20468;-68
2023/06/25 05:15:31;;;;;;;7.87;7.27;;;19.80;99.90;;;;;;4969420;28;20475;-67
2023/06/25 05:17:58;;;;;;;7.40;6.57;;;19.80;99.90;;;;;;4970548;28;20499;-67
2023/06/25 05:20:25;;;;;;;7.27;6.67;;;19.90;99.90;;;;;;4971791;28;20479;-66
2023/06/25 05:22:52;;;;;;;6.03;5.63;;;19.90;99.90;;;;;;4971806;28;20479;-66
2023/06/25 05:25:18;;;;;;;6.30;5.90;;;20.00;99.90;;;;;;4970436;28;20468;-67
2023/06/25 05:27:46;;;;;;;6.10;5.63;;;19.90;99.90;;;;;;4962794;28;20468;-66
2023/06/25 05:30:13;;;;;;;6.67;6.17;;;20.10;99.90;;;;;;4971444;28;20469;-66
2023/06/25 05:32:40;;;;;;;7.50;6.97;;;20.20;99.90;;;;;;4972047;28;20472;-66
2023/06/25 05:35:08;;;;;;;7.10;6.50;;;20.20;99.90;;;;;;4967033;28;20491;-67
2023/06/25 05:37:34;;;;;;;7.37;6.70;;;20.30;99.90;;;;;;4966999;28;20961;-67
2023/06/25 05:40:01;;;;;;;6.40;5.90;;;20.40;99.90;;;;;;4971221;28;20490;-66
2023/06/25 05:42:29;;;;;;;7.33;6.93;;;20.50;99.90;;;;;;4969909;28;20493;-66
2023/06/25 05:44:57;;;;;;;8.07;7.37;;;20.70;99.90;;;;;;4970271;28;20533;-66
2023/06/25 05:47:23;;;;;;;8.30;7.50;;;20.80;99.90;;;;;;4969548;28;20474;-67
2023/06/25 05:49:50;;;;;;;6.90;6.40;;;20.90;99.90;;;;;;4971486;28;20472;-66
2023/06/25 05:52:17;;;;;;;6.40;5.93;;;21.10;99.90;;;;;;4966905;28;20495;-67
2023/06/25 05:54:43;;;;;;;7.50;6.83;;;21.50;99.90;;;;;;4965154;28;20482;-67
2023/06/25 05:57:11;;;;;;;7.63;7.13;;;22.00;99.90;;;;;;4971060;28;20475;-66
2023/06/25 05:59:39;;;;;;;7.33;6.73;;;22.40;99.90;;;;;;4969282;28;20485;-67
2023/06/25 06:02:08;;;;;;;6.50;6.10;;;22.90;99.90;;;;;;4967482;28;20496;-67
2023/06/25 06:04:34;;;;;;;6.60;6.00;;;23.10;99.90;;;;;;4967488;28;20941;-66
2023/06/25 06:07:01;;;;;;;7.40;6.90;;;23.30;99.90;;;;;;4970846;28;20972;-68
2023/06/25 06:09:29;;;;;;;6.20;5.70;;;23.40;99.90;;;;;;4966409;28;20957;-67
2023/06/25 06:11:56;;;;;;;5.93;5.53;;;23.90;99.90;;;;;;4965937;28;21004;-68
2023/06/25 06:14:22;;;;;;;6.47;5.90;;;24.60;99.90;;;;;;4971345;28;20480;-68
2023/06/25 06:16:49;;;;;;;7.30;6.80;;;25.30;99.90;;;;;;4969225;28;20474;-68
2023/06/25 06:19:17;;;;;;;6.17;5.67;;;26.00;99.90;;;;;;4970969;28;20575;-68
2023/06/25 06:21:44;;;;;;;5.50;5.10;;;26.60;99.90;;;;;;4967832;28;21000;-68
2023/06/25 06:24:11;;;;;;;5.43;5.00;;;27.20;99.90;;;;;;4970830;28;20487;-68
2023/06/25 06:26:37;;;;;;;6.57;5.97;;;27.70;99.90;;;;;;4969304;28;20479;-67
2023/06/25 06:29:05;;;;;;;4.90;4.50;;;27.80;99.90;;;;;;4969493;28;20472;-68
2023/06/25 06:31:31;;;;;;;5.83;5.50;;;28.30;99.90;;;;;;4970192;28;20836;-66
2023/06/25 06:33:58;;;;;;;5.93;5.63;;;28.90;99.90;;;;;;4968902;28;20471;-68
2023/06/25 06:36:26;;;;;;;4.70;4.43;;;29.30;99.90;;;;;;4969858;28;20906;-67
2023/06/25 06:38:53;;;;;;;4.23;4.00;;;29.50;99.90;;;;;;4970953;28;20468;-67
2023/06/25 06:41:20;;;;;;;4.73;4.40;;;29.80;99.90;;;;;;4969590;28;20557;-66
2023/06/25 06:43:46;;;;;;;4.50;4.20;;;29.80;99.90;;;;;;4969411;28;20840;-68
2023/06/25 06:46:13;;;;;;;4.13;3.90;;;30.10;99.90;;;;;;4967136;28;20949;-68
2023/06/25 06:48:40;;;;;;;4.43;4.23;;;30.40;99.90;;;;;;4969754;28;20471;-68
2023/06/25 06:51:07;;;;;;;4.37;4.07;;;30.40;99.90;;;;;;4973760;28;20484;-68
2023/06/25 06:53:35;;;;;;;4.33;4.13;;;30.30;99.90;;;;;;4974415;28;20479;-67
2023/06/25 06:56:02;;;;;;;4.37;4.17;;;31.00;99.90;;;;;;4972731;28;20471;-67
2023/06/25 06:58:29;;;;;;;4.30;4.10;;;31.50;99.90;;;;;;4975126;28;20463;-67
2023/06/25 07:00:56;;;;;;;4.70;4.40;;;;;;;;;;4973231;28;20514;-66
2023/06/25 07:03:23;;;;;;;4.57;4.23;;;30.60;99.90;;;;;;4972839;28;20825;-66
2023/06/25 07:05:50;;;;;;;4.10;3.87;;;30.00;99.90;;;;;;4973047;28;20906;-66
2023/06/25 07:08:16;;;;;;;4.13;3.97;;;30.60;99.90;;;;;;4975165;28;20948;-66
2023/06/25 07:10:44;;;;;;;4.20;4.00;;;30.80;99.90;;;;;;4972455;28;20486;-67
2023/06/25 07:13:11;;;;;;;3.20;3.10;;;31.30;99.90;;;;;;4975210;28;20460;-66
2023/06/25 07:15:38;;;;;;;2.87;2.67;;;31.30;99.90;;;;;;4971147;28;20475;-66
2023/06/25 07:18:06;;;;;;;3.50;3.40;;;31.10;99.90;;;;;;4971872;28;20467;-67
2023/06/25 07:20:32;;;;;;;2.40;2.40;;;30.80;99.90;;;;;;4973944;28;20526;-66
2023/06/25 07:22:59;;;;;;;2.50;2.50;;;30.40;99.90;;;;;;4974624;28;20478;-67
2023/06/25 07:25:26;;;;;;;2.93;2.83;;;30.20;99.90;;;;;;4971303;28;20471;-67
2023/06/25 07:27:54;;;;;;;3.30;3.13;;;30.00;99.90;;;;;;4972934;28;20479;-67
2023/06/25 07:30:21;;;;;;;3.53;3.43;;;29.70;99.90;;;;;;4971280;28;20471;-66
2023/06/25 07:32:47;;;;;;;3.10;2.90;;;29.70;99.90;;;;;;4967048;28;21039;-66
2023/06/25 07:35:14;;;;;;;3.10;3.10;;;29.60;99.90;;;;;;4972481;28;20486;-66
2023/06/25 07:37:41;;;;;;;3.37;3.27;;;29.40;99.90;;;;;;4965622;28;20546;-66
2023/06/25 07:40:09;;;;;;;3.07;2.97;;;29.20;99.90;;;;;;4971688;28;20485;-66
2023/06/25 07:42:35;;;;;;;2.80;2.70;;;29.40;99.90;;;;;;4970228;28;20484;-66
2023/06/25 07:45:04;;;;;;;2.90;2.80;;;29.70;99.90;;;;;;4972420;28;20464;-66
2023/06/25 07:47:31;;;;;;;3.20;3.03;;;29.90;99.90;;;;;;4973383;28;20468;-66
2023/06/25 07:49:57;;;;;;;2.80;2.80;;;30.20;99.90;;;;;;4970213;28;20471;-66
2023/06/25 07:52:24;;;;;;;2.70;2.60;;;30.50;99.90;;;;;;4973248;28;20494;-65
2023/06/25 07:54:51;;;;;;;3.10;2.90;;;30.70;99.90;;;;;;4973152;28;20804;-66
2023/06/25 07:57:17;;;;;;;3.27;3.10;;;30.80;99.90;;;;;;4973697;28;20470;-65
2023/06/25 07:59:44;;;;;;;3.10;3.07;;;30.90;99.90;;;;;;4972284;28;20475;-66
2023/06/25 08:02:12;;;;;;;2.60;2.50;;;30.90;99.90;;;;;;4972715;28;20487;-67
2023/06/25 08:04:39;;;;;;;2.80;2.60;;;30.70;99.90;;;;;;4973673;28;20463;-67
2023/06/25 08:07:06;;;;;;;2.77;2.67;;;30.80;99.90;;;;;;4971828;28;20823;-66
2023/06/25 08:09:33;;;;;;;2.63;2.60;;;30.80;99.90;;;;;;4971822;28;20507;-67
2023/06/25 08:12:00;;;;;;;1.90;1.90;;;30.50;99.90;;;;;;4973288;28;20491;-67
2023/06/25 08:14:26;;;;;;;2.33;2.33;;;30.50;99.90;;;;;;4973508;28;20917;-67
2023/06/25 08:16:53;;;;;;;2.30;2.30;;;31.00;99.90;;;;;;4972570;28;20468;-67
2023/06/25 08:19:21;;;;;;;2.33;2.33;;;31.30;99.90;;;;;;4969466;28;20503;-67
2023/06/25 08:21:48;;;;;;;2.50;2.50;;;31.30;99.90;;;;;;4970985;28;20991;-67
2023/06/25 08:24:15;;;;;;;2.30;2.30;;;31.50;99.90;;;;;;4971810;28;20495;-67
2023/06/25 08:26:41;;;;;;;2.63;2.53;;;31.60;99.90;;;;;;4971965;28;20475;-67
2023/06/25 08:29:08;;;;;;;2.70;2.60;;;31.70;99.90;;;;;;4971610;28;20468;-66
2023/06/25 08:31:35;;;;;;;2.07;2.07;;;31.60;99.90;;;;;;4969152;28;20575;-67
2023/06/25 08:34:01;;;;;;;1.83;1.83;;;31.40;99.90;;;;;;4970086;28;20468;-66
2023/06/25 08:36:29;;;;;;;2.23;2.23;;;31.30;99.90;;;;;;4970226;28;20472;-67
2023/06/25 08:38:56;;;;;;;2.57;2.53;;;31.30;99.90;;;;;;4972301;28;20464;-67
2023/06/25 08:41:26;;;;;;;3.30;3.20;;;31.00;99.90;;;;;;4963203;28;21125;-63
2023/06/25 08:43:53;;;;;;;1.83;1.83;;;30.70;99.90;;;;;;4964563;28;21303;-62
2023/06/25 08:46:22;;;;;;;2.60;2.60;;;30.60;99.90;;;;;;4968069;28;20928;-62
2023/06/25 08:48:51;;;;;;;2.50;2.50;;;30.70;99.90;;;;;;4970857;28;20468;-63
2023/06/25 08:51:23;;;;;;;2.17;2.17;;;30.50;99.90;;;;;;4966237;28;20488;-62
2023/06/25 08:53:52;;;;;;;2.70;2.70;;;30.40;99.90;;;;;;4967225;28;20471;-63
2023/06/25 08:56:19;;;;;;;2.37;2.27;;;30.30;99.90;;;;;;4969103;28;20475;-62
2023/06/25 08:58:46;;;;;;;2.13;2.13;;;30.80;99.90;;;;;;4969983;28;20478;-64
2023/06/25 09:01:13;;;;;;;2.73;2.73;;;30.60;99.90;;;;;;4969560;28;20502;-63
2023/06/25 09:03:41;;;;;;;2.63;2.63;;;30.20;99.90;;;;;;4967790;28;20468;-63
2023/06/25 09:06:13;;;;;;;2.23;2.23;;;30.50;99.90;;;;;;4967589;28;20472;-63
2023/06/25 09:08:40;;;;;;;2.80;2.60;;;30.70;99.90;;;;;;4967638;28;20811;-63
2023/06/25 09:11:08;;;;;;;2.47;2.47;;;30.40;99.90;;;;;;4969262;28;20508;-63
2023/06/25 09:13:36;;;;;;;3.00;2.90;;;30.10;99.90;;;;;;4966037;28;20475;-63
2023/06/25 09:16:04;;;;;;;2.37;2.37;;;30.10;99.90;;;;;;4967406;28;20468;-63
2023/06/25 09:18:30;;;;;;;3.03;2.83;;;30.40;99.90;;;;;;4968104;28;20487;-63
2023/06/25 09:21:02;;;;;;;3.00;2.90;;;30.20;99.90;;;;;;4970993;28;20524;-60
2023/06/25 09:23:28;;;;;;;3.30;3.30;;;30.20;99.90;;;;;;4972312;28;20474;-62
2023/06/25 09:25:55;;;;;;;3.43;3.33;;;30.10;99.90;;;;;;4971392;28;20948;-67
2023/06/25 09:28:24;;;;;;;3.50;3.40;;;30.00;99.90;;;;;;4972270;28;20475;-67
2023/06/25 09:30:56;;;;;;;3.17;3.17;;;29.90;99.90;;;;;;4970601;28;20488;-66
2023/06/25 09:33:30;;;;;;;2.97;2.87;;;29.70;99.90;;;;;;4972416;28;20460;-67
2023/06/25 09:36:00;;;;;;;3.13;3.03;;;29.60;99.90;;;;;;4971111;28;20467;-68
2023/06/25 09:38:27;;;;;;;3.40;3.40;;;29.90;99.90;;;;;;4972143;28;20802;-67
2023/06/25 09:40:54;;;;;;;3.60;3.50;;;29.90;99.90;;;;;;4970661;28;20483;-67
2023/06/25 09:43:23;;;;;;;3.67;3.57;;;30.20;99.90;;;;;;4971517;28;20790;-67
2023/06/25 09:45:50;;;;;;;3.63;3.53;;;30.20;99.90;;;;;;4971315;28;20833;-67
2023/06/25 09:48:20;;;;;;;3.60;3.50;;;30.40;99.90;;;;;;4971652;28;20467;-67
2023/06/25 09:50:49;;;;;;;4.23;4.03;;;30.20;99.90;;;;;;4970598;28;20509;-67
2023/06/25 09:53:19;;;;;;;3.37;3.27;;;30.10;99.90;;;;;;4971830;28;20471;-67
2023/06/25 09:55:46;;;;;;;2.97;2.90;;;30.10;99.90;;;;;;4970816;28;20464;-68
2023/06/25 09:58:13;;;;;;;3.50;3.40;;;30.00;99.90;;;;;;4969934;28;20471;-68
2023/06/25 10:00:42;;;;;;;3.10;3.10;;;30.00;99.90;;;;;;4971486;28;20592;-67
2023/06/25 10:03:11;;;;;;;3.50;3.40;;;29.80;99.90;;;;;;4971442;28;20459;-67
2023/06/25 10:05:38;;;;;;;4.23;4.03;;;29.70;99.90;;;;;;4971610;28;20463;-68
2023/06/25 10:08:05;;;;;;;3.10;3.03;;;29.70;99.90;;;;;;4970639;28;20506;-69
2023/06/25 10:10:32;;;;;;;2.90;2.90;;;29.70;99.90;;;;;;4972933;28;20493;-69
2023/06/25 10:13:04;;;;;;;3.87;3.67;;;29.70;99.90;;;;;;4976444;28;20444;-69
2023/06/25 10:15:31;;;;;;;3.07;2.97;;;29.40;99.90;;;;;;4979079;28;20876;-68
2023/06/25 10:18:01;;;;;;;4.00;3.80;;;29.50;99.90;;;;;;4977100;28;20467;-68
2023/06/25 10:20:30;;;;;;;3.93;3.83;;;29.70;99.90;;;;;;4975303;28;20460;-68
2023/06/25 10:23:09;;;;;;;3.53;3.43;;;29.80;99.90;;;;;;4972355;28;20518;-69
2023/06/25 10:25:37;;;;;;;4.63;4.40;;;29.70;99.90;;;;;;4971802;28;20488;-69
2023/06/25 10:28:09;;;;;;;4.00;3.80;;;29.60;99.90;;;;;;4971097;28;20485;-67
2023/06/25 10:30:40;;;;;;;3.40;3.30;;;29.50;99.90;;;;;;4971349;28;20491;-68
2023/06/25 10:33:08;;;;;;;2.43;2.43;;;29.50;99.90;;;;;;4971117;28;20470;-69
2023/06/25 10:35:42;;;;;;;3.33;3.23;;;29.70;99.90;;;;;;4970943;28;20471;-68
2023/06/25 10:38:09;;;;;;;3.80;3.70;;;29.80;99.90;;;;;;4970660;28;20809;-68
2023/06/25 10:40:37;;;;;;;4.70;4.50;;;29.90;99.90;;;;;;4970638;28;21007;-68
2023/06/25 10:43:04;;;;;;;3.27;3.07;;;30.00;99.90;;;;;;4995048;23;20529;-69
2023/06/25 10:45:31;;;;;;;3.90;3.80;;;30.10;99.90;;;;;;4990629;28;20467;-69
2023/06/25 10:48:04;;;;;;;4.43;4.13;;;29.80;99.90;;;;;;4988847;28;20475;-69
2023/06/25 10:50:33;;;;;;;3.77;3.57;;;29.70;99.90;;;;;;4991020;28;20525;-69
2023/06/25 10:53:00;;;;;;;3.30;3.00;;;29.80;99.90;;;;;;4990012;28;20593;-69
2023/06/25 10:55:26;;;;;;;3.40;3.40;;;29.80;99.90;;;;;;4987058;28;20494;-69
2023/06/25 10:57:54;;;;;;;4.80;4.60;;;29.80;99.90;;;;;;4995586;28;20833;-69
2023/06/25 11:00:27;;;;;;;4.20;3.80;;;29.90;99.90;;;;;;4997788;28;20513;-69
2023/06/25 11:02:54;;;;;;;3.90;3.60;;;29.80;99.90;;;;;;4990551;28;20835;-69
2023/06/25 11:05:22;;;;;;;3.90;3.70;;;29.70;99.90;;;;;;4989524;28;20966;-69
2023/06/25 11:07:56;;;;;;;3.77;3.57;;;29.50;99.90;;;;;;4998832;28;20494;-69
2023/06/25 11:10:24;;;;;;;3.73;3.60;;;29.30;99.90;;;;;;4990195;28;20473;-69
2023/06/25 11:12:51;;;;;;;4.20;4.00;;;29.30;99.90;;;;;;4988259;28;20486;-69
2023/06/25 11:15:18;;;;;;;3.77;3.60;;;29.20;99.90;;;;;;4998486;28;20485;-69
2023/06/25 11:17:45;;;;;;;4.67;4.37;;;29.20;99.90;;;;;;4990359;28;20485;-68
2023/06/25 11:20:12;;;;;;;3.97;3.73;;;29.20;99.90;;;;;;4990653;28;20472;-68
2023/06/25 11:22:43;;;;;;;3.70;3.40;;;29.00;99.90;;;;;;4989031;28;20498;-69
2023/06/25 11:25:12;;;;;;;3.63;3.53;;;29.10;99.90;;;;;;4998177;28;20463;-69
2023/06/25 11:27:39;;;;;;;3.93;3.73;;;29.20;99.90;;;;;;4990164;28;20475;-69
2023/06/25 11:30:07;;;;;;;3.70;3.60;;;29.20;99.90;;;;;;4990689;28;20466;-69
2023/06/25 11:32:36;;;;;;;3.67;3.50;;;29.10;99.90;;;;;;4988013;28;20514;-69
2023/06/25 11:35:10;;;;;;;3.40;3.30;;;29.10;99.90;;;;;;4999955;28;20982;-69
2023/06/25 11:37:43;;;;;;;4.03;3.83;;;28.90;99.90;;;;;;4993991;28;20467;-69
2023/06/25 11:40:21;;;;;;;4.00;3.90;;;28.80;99.90;;;;;;4993678;28;20463;-69
2023/06/25 11:42:48;;;;;;;4.20;3.90;;;28.80;99.90;;;;;;4993325;28;20862;-69
2023/06/25 11:45:15;;;;;;;3.97;3.77;;;28.60;99.90;;;;;;5005066;28;20469;-68
2023/06/25 11:47:44;;;;;;;4.03;3.83;;;28.40;99.90;;;;;;5013099;28;20472;-69
2023/06/25 11:50:11;;;;;;;3.33;3.13;;;28.40;99.90;;;;;;5013767;28;20469;-68
2023/06/25 11:52:38;;;;;;;4.40;4.20;;;28.30;99.90;;;;;;5005303;28;20514;-69
2023/06/25 11:55:06;;;;;;;3.97;3.67;;;28.30;99.90;;;;;;5000587;28;20466;-69
2023/06/25 11:57:34;;;;;;;4.20;4.07;;;28.30;99.90;;;;;;5002037;28;20465;-68
2023/06/25 12:00:00;;;;;;;3.60;3.43;;;28.30;99.90;;;;;;4993479;28;20474;-68
2023/06/25 12:02:27;;;;;;;4.57;4.37;;;28.30;99.90;;;;;;4991865;28;20516;-69
2023/06/25 12:04:54;;;;;;;4.53;4.30;;;28.30;99.90;;;;;;5001489;28;20460;-69
2023/06/25 12:07:21;;;;;;;3.60;3.40;;;28.20;99.90;;;;;;4993035;28;20781;-69
2023/06/25 12:09:47;;;;;;;5.30;5.00;;;28.30;99.90;;;;;;4992737;28;20823;-69
2023/06/25 12:12:14;;;;;;;4.40;4.20;;;28.40;99.90;;;;;;4992580;28;20474;-68
2023/06/25 12:14:44;;;;;;;4.47;4.27;;;28.60;99.90;;;;;;5001373;28;20470;-69
2023/06/25 12:17:11;;;;;;;4.93;4.33;;;28.70;99.90;;;;;;4993430;28;20521;-69
2023/06/25 12:19:38;;;;;;;4.17;3.97;;;29.00;99.90;;;;;;4993738;28;20493;-69
2023/06/25 12:22:05;;;;;;;3.77;3.67;;;29.30;99.90;;;;;;4992530;28;20487;-69
2023/06/25 12:24:32;;;;;;;3.80;3.60;;;29.40;99.90;;;;;;5003692;28;20482;-69
2023/06/25 12:26:58;;;;;;;3.57;3.47;;;29.40;99.90;;;;;;5012733;28;20462;-69
2023/06/25 12:29:25;;;;;;;3.70;3.60;;;29.30;99.90;;;;;;5012784;28;20476;-69
2023/06/25 12:31:53;;;;;;;4.00;3.80;;;29.30;99.90;;;;;;5012276;28;20820;-69
2023/06/25 12:34:20;;;;;;;4.27;4.10;;;29.20;99.90;;;;;;5001125;28;20827;-69
2023/06/25 12:36:46;;;;;;;3.30;3.20;;;29.10;99.90;;;;;;4973410;28;20464;-69
2023/06/25 12:39:13;;;;;;;3.43;3.30;;;29.10;99.90;;;;;;4973257;28;20464;-69
2023/06/25 12:41:40;;;;;;;4.50;3.87;;;29.00;99.90;;;;;;4973217;28;20471;-69
2023/06/25 12:44:07;;;;;;;3.30;3.20;;;29.20;99.90;;;;;;4997728;28;20495;-69
2023/06/25 12:46:33;;;;;;;3.50;3.30;;;29.10;99.90;;;;;;5007669;28;20462;-67
2023/06/25 12:49:01;;;;;;;3.90;3.80;;;29.10;99.90;;;;;;5012435;28;20469;-69
2023/06/25 12:51:28;;;;;;;3.83;3.63;;;29.00;99.90;;;;;;4999565;28;20987;-69
2023/06/25 12:53:55;;;;;;;3.40;3.20;;;29.20;99.90;;;;;;5000590;28;20482;-69
2023/06/25 12:56:24;;;;;;;3.50;3.40;;;29.10;99.90;;;;;;4992370;28;20574;-69
2023/06/25 12:58:51;;;;;;;3.60;3.40;;;29.10;99.90;;;;;;4992172;28;20958;-69
2023/06/25 13:01:18;;;;;;;3.87;3.67;;;29.10;99.90;;;;;;5000134;28;20467;-69
2023/06/25 13:03:45;;;;;;;3.60;3.40;;;29.30;99.90;;;;;;4991722;28;20497;-69
2023/06/25 13:06:14;;;;;;;3.17;3.07;;;29.60;99.90;;;;;;5000484;28;20462;-69
2023/06/25 13:08:41;;;;;;;3.37;3.17;;;29.80;99.90;;;;;;4992176;28;20508;-69
2023/06/25 13:11:08;;;;;;;3.10;3.00;;;29.80;99.90;;;;;;5001496;28;20463;-69
2023/06/25 13:13:34;;;;;;;2.90;2.80;;;29.90;99.90;;;;;;5015371;28;20493;-70
2023/06/25 13:16:01;;;;;;;3.27;3.10;;;29.90;99.90;;;;;;5008104;28;20465;-70
2023/06/25 13:18:28;;;;;;;2.83;2.73;;;30.00;99.90;;;;;;4993732;28;20464;-69
2023/06/25 13:20:55;;;;;;;3.10;3.00;;;30.10;99.90;;;;;;5000590;28;20553;-68
2023/06/25 13:23:23;;;;;;;2.97;2.93;;;30.00;99.90;;;;;;4992524;28;21140;-69
2023/06/25 13:25:50;;;;;;;2.10;2.10;;;30.20;99.90;;;;;;4990774;28;20533;-68
2023/06/25 13:28:16;;;;;;;2.57;2.57;;;30.20;99.90;;;;;;5000634;28;20459;-69
2023/06/25 13:30:45;;;;;;;2.30;2.20;;;30.10;99.90;;;;;;5011758;28;20468;-68
2023/06/25 13:33:11;;;;;;;3.23;3.13;;;30.00;99.90;;;;;;5007733;28;20492;-68
2023/06/25 13:35:38;;;;;;;2.83;2.73;;;30.20;99.90;;;;;;4999822;28;20997;-70
2023/06/25 13:38:05;;;;;;;2.50;2.50;;;30.10;99.90;;;;;;4997302;28;20466;-69
2023/06/25 13:40:33;;;;;;;3.80;3.70;;;30.00;99.90;;;;;;4993902;28;20462;-68
2023/06/25 13:43:01;;;;;;;2.90;2.77;;;29.90;99.90;;;;;;4990007;28;20498;-68
2023/06/25 13:45:28;;;;;;;3.40;3.30;;;30.00;99.90;;;;;;5000187;28;20545;-66
2023/06/25 13:47:55;;;;;;;3.50;3.40;;;30.00;99.90;;;;;;4991176;28;20463;-69
2023/06/25 13:50:22;;;;;;;2.97;2.97;;;30.20;99.90;;;;;;4991644;28;20459;-69
2023/06/25 13:52:48;;;;;;;4.20;3.80;;;30.30;99.90;;;;;;4990674;28;20475;-71
2023/06/25 13:55:15;;;;;;;3.10;3.00;;;30.30;99.90;;;;;;4985295;28;20466;-69
2023/06/25 13:57:44;;;;;;;3.27;3.17;;;30.30;99.90;;;;;;4999154;28;20470;-69
2023/06/25 14:00:11;;;;;;;3.63;3.50;;;30.20;99.90;;;;;;4991710;28;20466;-68
2023/06/25 14:02:38;;;;;;;3.50;3.40;;;30.30;99.90;;;;;;4990971;28;20834;-69
2023/06/25 14:05:05;;;;;;;3.40;3.30;;;30.40;99.90;;;;;;4998433;28;20477;-70
2023/06/25 14:07:32;;;;;;;3.20;3.10;;;30.40;99.90;;;;;;5005301;28;20466;-69
2023/06/25 14:09:59;;;;;;;3.53;3.37;;;30.40;99.90;;;;;;5010568;28;20465;-69
2023/06/25 14:12:26;;;;;;;3.77;3.67;;;30.40;99.90;;;;;;5010807;28;20454;-68
2023/06/25 14:14:54;;;;;;;4.00;3.80;;;30.30;99.90;;;;;;4993069;28;20494;-68
2023/06/25 14:17:20;;;;;;;4.13;3.87;;;30.50;99.90;;;;;;5000326;28;20466;-67
2023/06/25 14:19:47;;;;;;;3.57;3.47;;;30.60;99.90;;;;;;5002273;28;20458;-69
2023/06/25 14:22:14;;;;;;;3.00;2.90;;;30.80;99.90;;;;;;5010429;28;20492;-67
2023/06/25 14:24:40;;;;;;;3.67;3.50;;;30.90;99.90;;;;;;4999107;28;20471;-68
2023/06/25 14:27:07;;;;;;;3.87;3.77;;;30.90;99.90;;;;;;5001349;28;20465;-70
2023/06/25 14:29:34;;;;;;;3.93;3.80;;;31.00;99.90;;;;;;5002298;28;20468;-68
2023/06/25 14:32:02;;;;;;;3.67;3.53;;;31.10;99.90;;;;;;5010245;28;20458;-68
2023/06/25 14:34:29;;;;;;;3.33;3.27;;;31.00;99.90;;;;;;4994348;28;20592;-69
2023/06/25 14:36:55;;;;;;;3.23;3.13;;;30.90;99.60;;;;;;4997774;28;20471;-69
2023/06/25 14:39:22;;;;;;;3.60;3.40;;;30.90;99.90;;;;;;5007146;28;20462;-70
2023/06/25 14:41:49;;;;;;;3.80;3.70;;;31.00;99.90;;;;;;5006039;28;20461;-67
2023/06/25 14:44:17;;;;;;;3.53;3.43;;;31.10;99.90;;;;;;4991955;28;20493;-67
2023/06/25 14:46:44;;;;;;;3.30;3.20;;;31.10;99.90;;;;;;5001413;28;20596;-69
2023/06/25 14:49:12;;;;;;;3.70;3.50;;;31.00;99.90;;;;;;5010256;28;20462;-69
2023/06/25 14:51:41;;;;;;;3.93;3.73;;;31.10;99.90;;;;;;5010054;28;20465;-69
2023/06/25 14:54:07;;;;;;;3.80;3.60;;;31.10;99.90;;;;;;5002003;28;20482;-69
2023/06/25 14:56:34;;;;;;;3.33;3.23;;;30.90;99.90;;;;;;4992251;28;20481;-69
2023/06/25 14:59:01;;;;;;;3.83;3.73;;;30.90;99.90;;;;;;4998884;28;20525;-69
2023/06/25 15:01:27;;;;;;;3.37;3.27;;;30.90;99.90;;;;;;4990098;28;20471;-70
2023/06/25 15:03:54;;;;;;;3.20;3.00;;;31.10;99.90;;;;;;4989302;28;20879;-69
2023/06/25 15:06:22;;;;;;;3.30;3.20;;;31.40;99.90;;;;;;4998271;28;20463;-70
2023/06/25 15:08:49;;;;;;;3.50;3.40;;;31.60;99.90;;;;;;4990893;28;20469;-69
2023/06/25 15:11:16;;;;;;;2.83;2.73;;;31.80;99.60;;;;;;4993653;28;20469;-69
2023/06/25 15:13:42;;;;;;;4.30;4.00;;;31.60;99.10;;;;;;4993892;28;20589;-69
2023/06/25 15:16:10;;;;;;;3.33;3.27;;;31.60;99.10;;;;;;5000492;28;20466;-69
2023/06/25 15:18:36;;;;;;;3.90;3.80;;;31.70;99.50;;;;;;5000277;28;20498;-69
2023/06/25 15:21:03;;;;;;;3.53;3.37;;;31.60;99.60;;;;;;4994345;28;20481;-69
2023/06/25 15:23:31;;;;;;;3.40;3.30;;;31.70;99.50;;;;;;4996955;28;20498;-69
2023/06/25 15:25:58;;;;;;;4.60;4.40;;;31.50;99.40;;;;;;5004596;28;20984;-69
2023/06/25 15:28:25;;;;;;;3.07;3.07;;;31.50;99.30;;;;;;5013904;28;20469;-69
2023/06/25 15:30:54;;;;;;;3.80;3.70;;;31.50;99.30;;;;;;5013206;28;20483;-69
2023/06/25 15:33:21;;;;;;;3.27;3.20;;;31.50;99.60;;;;;;5007642;28;20999;-69
2023/06/25 15:35:47;;;;;;;2.80;2.70;;;31.60;99.80;;;;;;5001892;28;20458;-69
2023/06/25 15:38:14;;;;;;;3.17;3.17;;;31.60;99.60;;;;;;4993949;28;20990;-69
2023/06/25 15:40:42;;;;;;;3.43;3.40;;;31.70;99.60;;;;;;4993822;28;20846;-69
2023/06/25 15:43:09;;;;;;;3.60;3.50;;;31.80;98.80;;;;;;4986105;28;20502;-69
2023/06/25 15:45:39;;;;;;;3.80;3.60;;;31.60;98.80;;;;;;5001697;28;20466;-69
2023/06/25 15:48:05;;;;;;;3.40;3.30;;;31.20;98.90;;;;;;4993221;28;20835;-69
2023/06/25 15:50:32;;;;;;;4.23;4.00;;;31.20;99.60;;;;;;4993950;28;20485;-69
2023/06/25 15:52:59;;;;;;;4.40;4.20;;;31.20;99.40;;;;;;4992945;28;20489;-68
2023/06/25 15:55:26;;;;;;;3.80;3.63;;;31.30;99.50;;;;;;4996523;28;20496;-70
2023/06/25 15:57:54;;;;;;;3.00;2.90;;;31.10;99.70;;;;;;5002601;28;20461;-70
2023/06/25 16:00:21;;;;;;;3.70;3.60;;;31.10;99.90;;;;;;4993750;28;20467;-69
2023/06/25 16:02:48;;;;;;;4.10;4.00;;;31.10;99.60;;;;;;4993468;28;20502;-68
2023/06/25 16:05:15;;;;;;;3.90;3.80;;;31.10;99.80;;;;;;4993021;28;20466;-70
2023/06/25 16:07:42;;;;;;;3.93;3.77;;;31.40;99.90;;;;;;5002003;28;20478;-69
2023/06/25 16:10:09;;;;;;;3.27;3.17;;;31.60;99.30;;;;;;5012895;28;20487;-69
2023/06/25 16:12:36;;;;;;;3.93;3.73;;;31.60;99.10;;;;;;5013037;28;20488;-68
2023/06/25 16:15:04;;;;;;;3.87;3.67;;;31.60;99.20;;;;;;4997471;28;20477;-70
2023/06/25 16:17:31;;;;;;;3.53;3.33;;;31.60;98.90;;;;;;5001438;28;20474;-69
2023/06/25 16:19:58;;;;;;;2.93;2.93;;;31.70;99.40;;;;;;4993076;28;20467;-69
2023/06/25 16:22:25;;;;;;;3.20;3.00;;;31.50;99.00;;;;;;4993138;28;20842;-70
2023/06/25 16:24:51;;;;;;;3.63;3.50;;;31.40;98.80;;;;;;4991346;28;20497;-68
2023/06/25 16:27:18;;;;;;;4.17;3.97;;;31.30;99.10;;;;;;5001140;28;20458;-68
2023/06/25 16:29:45;;;;;;;3.50;3.40;;;31.50;99.40;;;;;;4992994;28;20504;-69
2023/06/25 16:32:13;;;;;;;3.93;3.83;;;31.50;99.50;;;;;;4992757;28;20811;-69
2023/06/25 16:34:40;;;;;;;3.77;3.53;;;31.40;99.50;;;;;;4991602;28;20463;-69
2023/06/25 16:37:07;;;;;;;3.83;3.63;;;31.30;99.40;;;;;;5001052;28;20463;-68
2023/06/25 16:39:33;;;;;;;3.43;3.43;;;31.10;99.50;;;;;;4992824;28;20478;-69
2023/06/25 16:42:00;;;;;;;3.50;3.40;;;31.10;99.80;;;;;;4992735;28;20843;-69
2023/06/25 16:44:27;;;;;;;3.83;3.63;;;31.00;99.90;;;;;;4999829;28;20911;-69
2023/06/25 16:46:53;;;;;;;4.30;4.10;;;31.10;99.90;;;;;;5004663;28;20469;-68
2023/06/25 16:49:21;;;;;;;3.50;3.30;;;31.10;99.90;;;;;;5012268;28;20845;-68